Time,TemperatureF,DewpointF,PressureIn,WindDirection,WindDirectionDegrees,WindSpeedMPH,WindSpeedGustMPH,Humidity,HourlyPrecipIn,Conditions,Clouds,dailyrainin,SoftwareType,DateUTC
2013-06-08 00:12:00,54.0,46.0,30.22,East,85,3.0,9.0,74,0.00,,,0.01,,2013-06-07 23:12:00,
2013-06-08 00:33:00,52.0,46.0,30.22,East,81,3.0,10.0,79,0.00,,,0.01,,2013-06-07 23:33:00,
2013-06-08 00:45:00,52.0,46.0,30.22,East,81,3.0,10.0,79,0.00,,,0.01,,2013-06-07 23:45:00,
2013-06-08 00:53:00,52.0,46.0,30.22,East,81,3.0,10.0,79,0.00,,,0.01,,2013-06-07 23:53:00,
2013-06-08 01:04:00,51.0,45.0,30.22,East,83,3.0,8.0,81,0.00,,,0.01,,2013-06-08 00:04:00,
2013-06-08 01:12:00,51.0,46.0,30.22,East,84,3.0,8.0,83,0.00,,,0.01,,2013-06-08 00:12:00,
2013-06-08 01:26:00,51.0,46.0,30.22,East,84,3.0,8.0,83,0.00,,,0.01,,2013-06-08 00:26:00,
2013-06-08 01:33:00,51.0,46.0,30.22,East,84,3.0,8.0,83,0.00,,,0.01,,2013-06-08 00:33:00,
2013-06-08 01:44:00,51.0,46.0,30.22,East,84,3.0,8.0,83,0.00,,,0.01,,2013-06-08 00:44:00,
2013-06-08 01:52:00,50.0,46.0,30.22,East,83,3.0,7.0,85,0.00,,,0.01,,2013-06-08 00:52:00,
2013-06-08 02:04:00,49.0,45.0,30.22,East,91,1.0,5.0,86,0.00,,,0.01,,2013-06-08 01:04:00,
2013-06-08 02:22:00,49.0,46.0,30.21,East,91,3.0,7.0,88,0.00,,,0.01,,2013-06-08 01:22:00,
2013-06-08 02:34:00,49.0,46.0,30.21,East,91,3.0,7.0,88,0.00,,,0.01,,2013-06-08 01:34:00,
2013-06-08 02:42:00,49.0,46.0,30.21,East,91,3.0,7.0,88,0.00,,,0.01,,2013-06-08 01:42:00,
2013-06-08 02:57:00,48.0,45.0,30.20,East,85,3.0,11.0,88,0.00,,,0.01,,2013-06-08 01:57:00,
2013-06-08 03:13:00,48.0,45.0,30.21,East,90,3.0,8.0,89,0.00,,,0.01,,2013-06-08 02:13:00,
2013-06-08 03:22:00,48.0,45.0,30.21,East,90,3.0,8.0,89,0.00,,,0.01,,2013-06-08 02:22:00,
2013-06-08 03:33:00,48.0,45.0,30.20,East,90,3.0,10.0,89,0.00,,,0.01,,2013-06-08 02:33:00,
2013-06-08 03:43:00,47.0,44.0,30.20,East,86,3.0,8.0,88,0.00,,,0.01,,2013-06-08 02:43:00,
2013-06-08 03:57:00,47.0,44.0,30.20,East,86,3.0,8.0,88,0.00,,,0.01,,2013-06-08 02:57:00,
2013-06-08 04:05:00,47.0,44.0,30.20,East,85,2.0,7.0,89,0.00,,,0.01,,2013-06-08 03:05:00,
2013-06-08 04:33:00,48.0,45.0,30.20,East,86,3.0,11.0,88,0.00,,,0.01,,2013-06-08 03:33:00,
2013-06-08 04:58:00,47.0,44.0,30.19,East,93,3.0,9.0,88,0.00,,,0.01,,2013-06-08 03:58:00,
2013-06-08 05:03:00,47.0,44.0,30.19,East,93,3.0,9.0,88,0.00,,,0.01,,2013-06-08 04:03:00,
2013-06-08 05:12:00,47.0,44.0,30.19,East,93,3.0,9.0,88,0.00,,,0.01,,2013-06-08 04:12:00,
2013-06-08 05:22:00,47.0,44.0,30.19,East,91,2.0,9.0,88,0.00,,,0.01,,2013-06-08 04:22:00,
2013-06-08 05:33:00,47.0,44.0,30.20,East,88,3.0,10.0,89,0.00,,,0.01,,2013-06-08 04:33:00,
2013-06-08 05:42:00,47.0,44.0,30.20,East,88,3.0,10.0,89,0.00,,,0.01,,2013-06-08 04:42:00,
2013-06-08 05:53:00,48.0,45.0,30.19,East,90,3.0,10.0,88,0.00,,,0.01,,2013-06-08 04:53:00,
2013-06-08 06:02:00,48.0,45.0,30.19,East,90,3.0,10.0,88,0.00,,,0.01,,2013-06-08 05:02:00,
2013-06-08 06:11:00,48.0,45.0,30.19,East,90,3.0,10.0,88,0.00,,,0.01,,2013-06-08 05:11:00,
2013-06-08 06:22:00,48.0,45.0,30.20,East,91,3.0,11.0,88,0.00,,,0.01,,2013-06-08 05:22:00,
2013-06-08 06:32:00,48.0,44.0,30.19,East,87,3.0,7.0,87,0.00,,,0.01,,2013-06-08 05:32:00,
2013-06-08 06:42:00,48.0,44.0,30.19,East,87,3.0,7.0,87,0.00,,,0.01,,2013-06-08 05:42:00,
2013-06-08 06:52:00,48.0,44.0,30.19,East,87,3.0,7.0,87,0.00,,,0.01,,2013-06-08 05:52:00,
2013-06-08 07:02:00,49.0,45.0,30.20,East,90,3.0,9.0,86,0.00,,,0.01,,2013-06-08 06:02:00,
2013-06-08 07:12:00,49.0,45.0,30.20,East,90,3.0,9.0,86,0.00,,,0.01,,2013-06-08 06:12:00,
2013-06-08 07:22:00,50.0,46.0,30.20,East,91,2.0,10.0,85,0.00,,,0.01,,2013-06-08 06:22:00,
2013-06-08 07:32:00,51.0,46.0,30.20,East,97,2.0,7.0,82,0.00,,,0.01,,2013-06-08 06:32:00,
2013-06-08 07:42:00,51.0,46.0,30.20,East,97,2.0,7.0,82,0.00,,,0.01,,2013-06-08 06:42:00,
2013-06-08 07:52:00,51.0,46.0,30.20,East,97,2.0,7.0,82,0.00,,,0.01,,2013-06-08 06:52:00,
2013-06-08 08:02:00,50.0,45.0,30.20,East,90,3.0,12.0,83,0.00,,,0.01,,2013-06-08 07:02:00,
2013-06-08 08:11:00,50.0,45.0,30.20,East,90,3.0,12.0,83,0.00,,,0.01,,2013-06-08 07:11:00,
2013-06-08 08:22:00,52.0,46.0,30.20,ESE,103,2.0,6.0,81,0.00,,,0.01,,2013-06-08 07:22:00,
2013-06-08 08:32:00,52.0,46.0,30.20,ESE,103,2.0,6.0,81,0.00,,,0.01,,2013-06-08 07:32:00,
2013-06-08 08:42:00,52.0,46.0,30.20,East,97,2.0,9.0,81,0.00,,,0.01,,2013-06-08 07:42:00,
2013-06-08 08:52:00,52.0,46.0,30.20,East,97,2.0,9.0,81,0.00,,,0.01,,2013-06-08 07:52:00,
2013-06-08 09:02:00,53.0,46.0,30.19,East,91,3.0,12.0,78,0.00,,,0.01,,2013-06-08 08:02:00,
2013-06-08 09:12:00,53.0,46.0,30.19,East,91,3.0,12.0,78,0.00,,,0.01,,2013-06-08 08:12:00,
2013-06-08 09:22:00,54.0,48.0,30.20,East,85,2.0,7.0,80,0.00,,,0.01,,2013-06-08 08:22:00,
2013-06-08 09:32:00,54.0,48.0,30.20,East,85,2.0,7.0,80,0.00,,,0.01,,2013-06-08 08:32:00,
2013-06-08 09:42:00,54.0,48.0,30.20,East,85,2.0,7.0,80,0.00,,,0.01,,2013-06-08 08:42:00,
2013-06-08 09:52:00,56.0,48.0,30.19,East,86,4.0,9.0,74,0.00,,,0.01,,2013-06-08 08:52:00,
2013-06-08 10:01:00,55.0,47.0,30.19,East,91,3.0,12.0,73,0.00,,,0.01,,2013-06-08 09:01:00,
2013-06-08 10:12:00,55.0,47.0,30.19,East,91,3.0,12.0,73,0.00,,,0.01,,2013-06-08 09:12:00,
2013-06-08 10:22:00,55.0,47.0,30.19,East,91,3.0,12.0,73,0.00,,,0.01,,2013-06-08 09:22:00,
2013-06-08 10:33:00,55.0,47.0,30.18,East,87,3.0,9.0,73,0.00,,,0.01,,2013-06-08 09:33:00,
2013-06-08 10:42:00,55.0,47.0,30.18,East,87,3.0,9.0,73,0.00,,,0.01,,2013-06-08 09:42:00,
2013-06-08 10:53:00,55.0,46.0,30.18,East,90,4.0,12.0,72,0.00,,,0.01,,2013-06-08 09:53:00,
2013-06-08 11:02:00,58.0,47.0,30.17,East,84,2.0,10.0,68,0.00,,,0.01,,2013-06-08 10:02:00,
2013-06-08 11:12:00,58.0,47.0,30.17,East,84,2.0,10.0,68,0.00,,,0.01,,2013-06-08 10:12:00,
2013-06-08 11:22:00,58.0,47.0,30.17,East,84,2.0,10.0,68,0.00,,,0.01,,2013-06-08 10:22:00,
2013-06-08 11:33:00,57.0,47.0,30.16,East,97,2.0,13.0,69,0.00,,,0.01,,2013-06-08 10:33:00,
2013-06-08 11:42:00,57.0,47.0,30.16,East,97,2.0,13.0,69,0.00,,,0.01,,2013-06-08 10:42:00,
2013-06-08 11:53:00,59.0,48.0,30.16,East,93,3.0,11.0,67,0.00,,,0.01,,2013-06-08 10:53:00,
2013-06-08 12:02:00,59.0,48.0,30.16,East,93,3.0,11.0,67,0.00,,,0.01,,2013-06-08 11:02:00,
2013-06-08 12:12:00,59.0,48.0,30.16,East,93,3.0,11.0,67,0.00,,,0.01,,2013-06-08 11:12:00,
2013-06-08 12:22:00,58.0,47.0,30.16,ENE,78,2.0,15.0,68,0.00,,,0.01,,2013-06-08 11:22:00,
2013-06-08 12:32:00,58.0,46.0,30.16,East,80,3.0,10.0,64,0.00,,,0.01,,2013-06-08 11:32:00,
2013-06-08 12:42:00,58.0,46.0,30.16,East,80,3.0,10.0,64,0.00,,,0.01,,2013-06-08 11:42:00,
2013-06-08 12:52:00,60.0,49.0,30.15,East,83,3.0,9.0,66,0.00,,,0.01,,2013-06-08 11:52:00,
2013-06-08 13:02:00,60.0,49.0,30.15,East,83,3.0,9.0,66,0.00,,,0.01,,2013-06-08 12:02:00,
2013-06-08 13:12:00,60.0,49.0,30.15,East,83,3.0,9.0,66,0.00,,,0.01,,2013-06-08 12:12:00,
2013-06-08 13:22:00,62.0,48.0,30.14,East,81,3.0,11.0,61,0.00,,,0.01,,2013-06-08 12:22:00,
2013-06-08 13:32:00,61.0,48.0,30.14,East,84,3.0,12.0,62,0.00,,,0.01,,2013-06-08 12:32:00,
2013-06-08 13:42:00,61.0,48.0,30.14,East,84,3.0,12.0,62,0.00,,,0.01,,2013-06-08 12:42:00,
2013-06-08 13:52:00,61.0,48.0,30.14,East,84,3.0,12.0,62,0.00,,,0.01,,2013-06-08 12:52:00,
2013-06-08 14:02:00,62.0,48.0,30.14,East,87,3.0,12.0,61,0.00,,,0.01,,2013-06-08 13:02:00,
2013-06-08 14:11:00,62.0,48.0,30.14,East,87,3.0,12.0,61,0.00,,,0.01,,2013-06-08 13:11:00,
2013-06-08 14:22:00,62.0,47.0,30.14,East,89,3.0,10.0,58,0.00,,,0.01,,2013-06-08 13:22:00,
2013-06-08 14:32:00,62.0,47.0,30.13,East,90,2.0,8.0,58,0.00,,,0.01,,2013-06-08 13:32:00,
2013-06-08 14:42:00,62.0,47.0,30.13,East,90,2.0,8.0,58,0.00,,,0.01,,2013-06-08 13:42:00,
2013-06-08 14:52:00,62.0,47.0,30.13,East,90,2.0,8.0,58,0.00,,,0.01,,2013-06-08 13:52:00,
2013-06-08 15:02:00,63.0,48.0,30.12,ENE,64,2.0,8.0,57,0.00,,,0.01,,2013-06-08 14:02:00,
2013-06-08 15:11:00,63.0,48.0,30.12,ENE,64,2.0,8.0,57,0.00,,,0.01,,2013-06-08 14:11:00,
2013-06-08 15:22:00,64.0,49.0,30.12,East,81,2.0,9.0,58,0.00,,,0.01,,2013-06-08 14:22:00,
2013-06-08 15:32:00,64.0,49.0,30.12,East,81,2.0,9.0,58,0.00,,,0.01,,2013-06-08 14:32:00,
2013-06-08 15:42:00,64.0,49.0,30.12,East,81,2.0,9.0,58,0.00,,,0.01,,2013-06-08 14:42:00,
2013-06-08 15:52:00,63.0,48.0,30.11,East,90,3.0,10.0,58,0.00,,,0.01,,2013-06-08 14:52:00,
2013-06-08 16:02:00,63.0,47.0,30.11,East,90,3.0,10.0,56,0.00,,,0.01,,2013-06-08 15:02:00,
2013-06-08 16:12:00,63.0,47.0,30.11,East,90,3.0,10.0,56,0.00,,,0.01,,2013-06-08 15:12:00,
2013-06-08 16:22:00,63.0,48.0,30.10,East,98,2.0,10.0,57,0.00,,,0.01,,2013-06-08 15:22:00,
2013-06-08 16:32:00,63.0,48.0,30.10,East,98,2.0,10.0,57,0.00,,,0.01,,2013-06-08 15:32:00,
2013-06-08 16:42:00,63.0,48.0,30.10,East,98,2.0,10.0,57,0.00,,,0.01,,2013-06-08 15:42:00,
2013-06-08 16:53:00,63.0,48.0,30.09,East,88,3.0,13.0,59,0.00,,,0.00,,2013-06-08 15:53:00,
2013-06-08 17:02:00,62.0,47.0,30.09,East,83,3.0,10.0,58,0.00,,,0.00,,2013-06-08 16:02:00,
2013-06-08 17:12:00,62.0,47.0,30.09,East,83,3.0,10.0,58,0.00,,,0.00,,2013-06-08 16:12:00,
2013-06-08 17:22:00,62.0,47.0,30.09,East,83,3.0,10.0,58,0.00,,,0.00,,2013-06-08 16:22:00,
2013-06-08 17:32:00,63.0,48.0,30.09,East,79,2.0,12.0,57,0.00,,,0.00,,2013-06-08 16:32:00,
2013-06-08 17:42:00,63.0,48.0,30.09,East,79,2.0,12.0,57,0.00,,,0.00,,2013-06-08 16:42:00,
2013-06-08 17:53:00,63.0,48.0,30.08,ESE,105,2.0,10.0,58,0.00,,,0.00,,2013-06-08 16:53:00,
2013-06-08 18:02:00,62.0,48.0,30.07,East,91,3.0,11.0,60,0.00,,,0.00,,2013-06-08 17:02:00,
2013-06-08 18:12:00,62.0,48.0,30.07,East,91,3.0,11.0,60,0.00,,,0.00,,2013-06-08 17:12:00,
2013-06-08 18:22:00,62.0,48.0,30.07,East,91,3.0,11.0,60,0.00,,,0.00,,2013-06-08 17:22:00,
2013-06-08 18:32:00,61.0,47.0,30.07,East,88,4.0,12.0,61,0.00,,,0.00,,2013-06-08 17:32:00,
2013-06-08 18:42:00,61.0,47.0,30.07,East,88,4.0,12.0,61,0.00,,,0.00,,2013-06-08 17:42:00,
2013-06-08 18:52:00,61.0,48.0,30.06,East,90,4.0,11.0,62,0.00,,,0.00,,2013-06-08 17:52:00,
2013-06-08 19:02:00,61.0,48.0,30.06,East,90,4.0,11.0,62,0.00,,,0.00,,2013-06-08 18:02:00,
2013-06-08 19:12:00,61.0,48.0,30.06,East,90,4.0,11.0,62,0.00,,,0.00,,2013-06-08 18:12:00,
2013-06-08 19:22:00,59.0,47.0,30.07,East,86,3.0,12.0,64,0.00,,,0.00,,2013-06-08 18:22:00,
2013-06-08 19:32:00,60.0,48.0,30.07,East,90,3.0,9.0,64,0.00,,,0.00,,2013-06-08 18:32:00,
2013-06-08 19:41:00,60.0,48.0,30.07,East,90,3.0,9.0,64,0.00,,,0.00,,2013-06-08 18:41:00,
2013-06-08 19:52:00,58.0,47.0,30.07,East,79,3.0,10.0,67,0.00,,,0.00,,2013-06-08 18:52:00,
2013-06-08 20:02:00,58.0,47.0,30.07,East,79,3.0,10.0,67,0.00,,,0.00,,2013-06-08 19:02:00,
2013-06-08 20:12:00,58.0,47.0,30.07,East,79,3.0,10.0,67,0.00,,,0.00,,2013-06-08 19:12:00,
2013-06-08 20:22:00,57.0,47.0,30.08,East,84,3.0,11.0,68,0.00,,,0.00,,2013-06-08 19:22:00,
2013-06-08 20:32:00,56.0,46.0,30.08,East,93,4.0,11.0,70,0.00,,,0.00,,2013-06-08 19:32:00,
2013-06-08 20:42:00,56.0,46.0,30.08,East,93,4.0,11.0,70,0.00,,,0.00,,2013-06-08 19:42:00,
2013-06-08 20:52:00,56.0,46.0,30.08,East,93,4.0,11.0,70,0.00,,,0.00,,2013-06-08 19:52:00,
2013-06-08 21:02:00,55.0,46.0,30.08,East,84,3.0,11.0,71,0.00,,,0.00,,2013-06-08 20:02:00,
2013-06-08 21:11:00,55.0,46.0,30.08,East,84,3.0,11.0,71,0.00,,,0.00,,2013-06-08 20:11:00,
2013-06-08 21:22:00,55.0,46.0,30.07,East,89,2.0,8.0,72,0.00,,,0.00,,2013-06-08 20:22:00,
2013-06-08 21:32:00,55.0,47.0,30.07,East,90,2.0,9.0,73,0.00,,,0.00,,2013-06-08 20:32:00,
2013-06-08 21:42:00,55.0,47.0,30.07,East,90,2.0,9.0,73,0.00,,,0.00,,2013-06-08 20:42:00,
2013-06-08 21:52:00,55.0,47.0,30.07,East,90,2.0,9.0,73,0.00,,,0.00,,2013-06-08 20:52:00,
2013-06-08 22:02:00,54.0,46.0,30.08,East,95,2.0,8.0,74,0.00,,,0.00,,2013-06-08 21:02:00,
2013-06-08 22:12:00,54.0,46.0,30.08,East,95,2.0,8.0,74,0.00,,,0.00,,2013-06-08 21:12:00,
2013-06-08 22:22:00,53.0,46.0,30.08,East,88,3.0,15.0,76,0.00,,,0.00,,2013-06-08 21:22:00,
2013-06-08 22:33:00,53.0,46.0,30.08,East,88,3.0,15.0,76,0.00,,,0.00,,2013-06-08 21:33:00,
2013-06-08 22:43:00,53.0,46.0,30.08,East,88,3.0,15.0,76,0.00,,,0.00,,2013-06-08 21:43:00,
2013-06-08 22:52:00,53.0,46.0,30.08,East,98,3.0,9.0,77,0.00,,,0.00,,2013-06-08 21:52:00,
2013-06-08 23:02:00,53.0,46.0,30.08,East,90,3.0,10.0,78,0.00,,,0.00,,2013-06-08 22:02:00,
2013-06-08 23:12:00,53.0,46.0,30.08,East,84,4.0,11.0,78,0.00,,,0.00,,2013-06-08 22:12:00,
2013-06-08 23:22:00,53.0,46.0,30.08,East,84,4.0,11.0,78,0.00,,,0.00,,2013-06-08 22:22:00,
2013-06-08 23:33:00,53.0,46.0,30.08,East,84,4.0,11.0,78,0.00,,,0.00,,2013-06-08 22:33:00,
2013-06-08 23:42:00,52.0,46.0,30.08,East,88,3.0,9.0,80,0.00,,,0.00,,2013-06-08 22:42:00,
2013-06-08 23:52:00,52.0,46.0,30.08,East,88,3.0,9.0,80,0.00,,,0.00,,2013-06-08 22:52:00,